Terminal Aerodrome Forecast
Issued by NWS

Home | Current Version | Previous Version | Text Only | Print | Product List | Glossary On
Versions: 1 2 3 4 5 6 7 8 9 10 11
000
FTUS43 KEAX 130520
TAFMKC
TAF
KMKC 130520Z 1306/1406 22011KT P6SM SKC
     FM131600 32015G25KT P6SM SCT150
     FM132300 34014KT P6SM FEW200
     FM140300 35006KT P6SM SCT040=

USA.gov is the U.S. government's official web portal to all federal, state and local government web resources and services.